• Join FlightAware (Why Join?)
  • Login
  • US Flag 
08:20AM EDT


 

Airport Tracker/Info


-or-


 

Live Flight TrackerFlight Track Log ✈ SWA2336 ✈ 27-Apr-2013 ✈ KLAS - KSAN

Flight Track Log - Related Links

Times and Time Zones

All times are in EDT time to prevent confusion due to time zone crossing. See the SWA2336 flight status page for this flight to view local times or setup timezone preferences in your user account.

Time Position Orientation Groundspeed Altitude Reporting Facility
EDT Latitude Longitude Course Direction KTS MPH feet Rate Location/Type
06:22PM 36.0761 -115.1683 269° West 169 194 3,200  Level Los Angeles Center
06:23PM 36.0750 -115.2325 269° West 221 254 4,500 1,800 Climbing Los Angeles Center
06:24PM 36.0164 -115.2797 213° Southwest 267 307 6,800 1,380 Climbing Los Angeles Center
06:25PM 35.9397 -115.3081 197° South 281 323 7,400 1,920 Climbing Los Angeles Center
06:26PM 35.8592 -115.3139 183° South 285 328 10,800 3,240 Climbing Los Angeles Center
06:27PM 35.7706 -115.3058 176° South 303 349 14,100 3,000 Climbing Los Angeles Center
06:28PM 35.6542 -115.2933 175° South 340 391 17,100 2,820 Climbing Los Angeles Center
06:29PM 35.5444 -115.2994 183° South 383 441 20,000 2,580 Climbing Los Angeles Center
06:30PM 35.4317 -115.3031 181° South 400 460 22,500 2,340 Climbing Los Angeles Center
06:31PM 35.3153 -115.3328 192° South 422 486 24,900 2,580 Climbing Los Angeles Center
06:32PM 35.2019 -115.3719 196° South 421 484 27,900 1,500 Climbing Los Angeles Center
06:33PM 35.0928 -115.4094 196° South 426 490 28,000  Climbing Los Angeles Center
06:34PM 34.9428 -115.4619 196° South 456 525 28,000  Level Los Angeles Center
06:35PM 34.8094 -115.5069 195° South 468 539 28,000  Level Los Angeles Center
06:36PM 34.6853 -115.5497 196° South 465 535 28,000  Level Los Angeles Center
06:37PM 34.5678 -115.5886 195° South 462 532 28,000  Level Los Angeles Center
06:38PM 34.4439 -115.6314 196° South 462 532 28,000  Level Los Angeles Center
06:39PM 34.3108 -115.6750 195° South 466 536 28,000  Level Los Angeles Center
06:40PM 34.1864 -115.7161 195° South 466 536 28,000  Level Los Angeles Center
06:41PM 34.0625 -115.7583 196° South 464 534 28,000  Level Los Angeles Center
06:42PM 33.9381 -115.8006 196° South 465 535 28,000  Level Los Angeles Center
06:43PM 33.7892 -115.8519 196° South 464 534 28,000 -240 Level Los Angeles Center
06:44PM 33.6642 -115.8933 195° South 467 537 27,600 -1,080 Descending Los Angeles Center
06:45PM 33.5492 -115.9328 196° South 434 499 25,800 -1,860 Descending Los Angeles Center
06:46PM 33.4692 -116.0236 223° Southwest 406 467 23,800 -2,160 Descending Los Angeles Center
06:47PM 33.3878 -116.1111 222° Southwest 397 457 21,400 -2,220 Descending Los Angeles Center
06:48PM 33.2989 -116.1889 216° Southwest 397 457 19,300 -2,040 Descending Los Angeles Center
06:49PM 33.1936 -116.2700 213° Southwest 378 435 17,300 -1,860 Descending Los Angeles Center
06:50PM 33.1042 -116.3258 208° Southwest 365 420 15,600 -1,620 Descending Los Angeles Center
06:52PM 33.0053 -116.3650 198° South 354 407 14,000 -1,320 Descending Los Angeles Center
06:53PM 32.9183 -116.4036 200° South 342 394 12,900 -1,260 Descending Los Angeles Center
06:54PM 32.8717 -116.4869 236° Southwest 309 356 11,400 -1,560 Descending Los Angeles Center
06:55PM 32.8294 -116.5831 242° Southwest 308 354 9,800 -1,560 Descending Los Angeles Center
06:56PM 32.7903 -116.6722 242° Southwest 306 352 8,300 -1,500 Descending Los Angeles Center
06:57PM 32.7511 -116.7589 242° Southwest 302 348 6,800 -1,260 Descending Los Angeles Center
06:58PM 32.7147 -116.8411 242° Southwest 288 331 5,800 -1,020 Descending Los Angeles Center
06:59PM 32.6806 -116.9147 241° Southwest 264 304 4,800 -1,200 Descending Los Angeles Center
06:59PM 32.6667 -116.9500 245° Southwest 248 285 4,200 -1,440 Descending Southern California TRACON
07:00PM 32.6833 -117.0167 287° West 214 246 3,000 -1,200 Descending Southern California TRACON
07:01PM 32.7000 -117.0833 287° West 189 217 1,800 -1,020 Descending Southern California TRACON
07:02PM 32.7167 -117.1333 292° West 149 171 1,000 -840 Descending Southern California TRACON
07:03PM 32.7261 -117.1600 293° West 142 163 400 -720 Descending Los Angeles Center
07:06PM 32.7333 -117.1833 281° West  Level FlightAware Approximate